Time;durP1;ratioP1;P1;durP2;ratioP2;P2;SDS_P1;SDS_P2;PMS_P1;PMS_P2;Temp;Humidity;BMP_temperature;BMP_pressure;BME280_temperature;BME280_humidity;BME280_pressure;Samples;Min_cycle;Max_cycle;Signal;HPM_P1;HPM_P2
2021/11/11 00:00:29;;;;;;;12.90;7.60;;;22.20;52.40;;;;;;5256014;28;20508;-50
2021/11/11 00:03:03;;;;;;;11.43;6.97;;;22.20;53.10;;;;;;5260696;28;20047;-53
2021/11/11 00:05:35;;;;;;;;;;;22.20;52.30;;;;;;5242696;28;20047;-57
2021/11/11 00:08:08;;;;;;;13.82;7.32;;;22.20;52.30;;;;;;5257822;28;21612;-56
2021/11/11 00:10:42;;;;;;;12.43;7.07;;;22.30;52.40;;;;;;5258662;28;20054;-57
2021/11/11 00:13:19;;;;;;;11.40;7.55;;;22.20;52.30;;;;;;5259643;28;20055;-54
2021/11/11 00:15:51;;;;;;;13.05;7.50;;;22.20;52.20;;;;;;5239664;28;20044;-56
2021/11/11 00:18:23;;;;;;;12.68;7.18;;;22.30;52.20;;;;;;5257100;28;20382;-57
2021/11/11 00:20:56;;;;;;;10.15;7.15;;;22.30;52.20;;;;;;5260051;28;20046;-56
2021/11/11 00:23:29;;;;;;;12.67;7.90;;;22.30;52.20;;;;;;5257431;28;20047;-56
2021/11/11 00:26:01;;;;;;;11.85;7.40;;;22.30;52.10;;;;;;5260501;28;20357;-54
2021/11/11 00:28:33;;;;;;;10.20;6.70;;;22.30;52.10;;;;;;5262463;28;20511;-56
2021/11/11 00:31:06;;;;;;;10.07;7.05;;;22.30;52.10;;;;;;5253019;28;20059;-53
2021/11/11 00:33:39;;;;;;;9.50;6.87;;;22.30;52.10;;;;;;5242504;28;20806;-56
2021/11/11 00:36:12;;;;;;;9.57;7.35;;;22.30;52.00;;;;;;5261914;28;20448;-56
2021/11/11 00:38:45;;;;;;;11.10;6.97;;;22.30;52.10;;;;;;5260458;28;20047;-56
2021/11/11 00:41:18;;;;;;;11.90;6.88;;;22.30;52.00;;;;;;5262034;28;20039;-55
2021/11/11 00:43:50;;;;;;;9.73;7.05;;;22.30;52.00;;;;;;5262145;28;20066;-54
2021/11/11 00:46:22;;;;;;;9.30;6.97;;;22.30;52.00;;;;;;5236365;28;20059;-56
2021/11/11 00:48:55;;;;;;;11.63;7.70;;;22.30;52.00;;;;;;5250691;28;20052;-55
2021/11/11 00:51:28;;;;;;;11.40;7.37;;;22.30;52.00;;;;;;5236449;28;20510;-57
2021/11/11 00:54:00;;;;;;;12.32;7.35;;;22.30;52.10;;;;;;5232394;28;20039;-55
2021/11/11 00:56:33;;;;;;;11.80;6.78;;;22.30;52.10;;;;;;5252852;28;20054;-55
2021/11/11 00:59:10;;;;;;;11.60;8.05;;;22.40;52.20;;;;;;5235087;28;20039;-52
2021/11/11 01:01:43;;;;;;;9.80;7.38;;;22.40;52.10;;;;;;5234697;28;20055;-55
2021/11/11 01:04:15;;;;;;;9.02;7.15;;;22.40;52.10;;;;;;5245261;28;20040;-55
2021/11/11 01:06:48;;;;;;;10.27;7.20;;;22.40;52.10;;;;;;5240967;28;20047;-55
2021/11/11 01:09:21;;;;;;;13.15;6.88;;;22.30;52.10;;;;;;5249595;28;20050;-56
2021/11/11 01:11:53;;;;;;;14.98;7.57;;;22.40;52.10;;;;;;5246076;28;20052;-52
2021/11/11 01:14:26;;;;;;;12.15;6.97;;;22.40;52.10;;;;;;5230756;28;20047;-53
2021/11/11 01:16:58;;;;;;;9.60;7.10;;;22.30;52.00;;;;;;5249718;28;20044;-54
2021/11/11 01:19:32;;;;;;;9.45;7.03;;;22.30;52.10;;;;;;5226694;28;20059;-51
2021/11/11 01:22:05;;;;;;;15.75;7.25;;;22.40;52.20;;;;;;5254101;28;20043;-53
2021/11/11 01:24:37;;;;;;;9.63;6.70;;;22.40;52.20;;;;;;5251659;28;20040;-53
2021/11/11 01:27:10;;;;;;;10.40;7.63;;;22.40;52.20;;;;;;5256278;28;20055;-54
2021/11/11 01:29:43;;;;;;;10.50;6.70;;;22.40;52.20;;;;;;5255164;28;20044;-55
2021/11/11 01:32:17;;;;;;;;;;;22.40;52.20;;;;;;5222499;28;20048;-54
2021/11/11 01:34:50;;;;;;;11.10;7.03;;;22.30;52.20;;;;;;5210217;28;19935;-53
2021/11/11 01:37:23;;;;;;;12.80;7.20;;;22.30;52.20;;;;;;5226428;28;20309;-57
2021/11/11 01:39:59;;;;;;;8.13;6.03;;;22.30;52.20;;;;;;5206799;28;20039;-56
2021/11/11 01:42:51;;;;;;;11.48;7.10;;;22.30;52.10;;;;;;5213942;28;20043;-54
2021/11/11 01:45:31;;;;;;;11.77;7.38;;;22.30;52.10;;;;;;5233460;28;22047;-53
2021/11/11 01:48:11;;;;;;;9.73;6.32;;;22.30;52.10;;;;;;5252492;28;20043;-55
2021/11/11 01:50:46;;;;;;;10.48;6.90;;;22.40;52.20;;;;;;5226786;28;20078;-55
2021/11/11 01:53:20;;;;;;;11.73;7.28;;;22.40;52.10;;;;;;5251534;28;20500;-55
2021/11/11 01:55:55;;;;;;;9.35;7.20;;;22.30;52.10;;;;;;5232585;28;20503;-54
2021/11/11 01:58:30;;;;;;;7.95;6.25;;;22.30;52.10;;;;;;5222675;28;20043;-51
2021/11/11 02:01:03;;;;;;;9.00;6.93;;;22.30;52.10;;;;;;5246437;28;20066;-54
2021/11/11 02:03:39;;;;;;;8.68;6.55;;;22.30;52.10;;;;;;5220336;28;20047;-52
2021/11/11 02:06:14;;;;;;;12.20;6.95;;;22.30;52.10;;;;;;5217858;28;20615;-53
2021/11/11 02:09:01;;;;;;;7.45;6.43;;;22.30;52.10;;;;;;5222425;28;20047;-49
2021/11/11 02:11:57;;;;;;;11.25;5.85;;;22.30;52.20;;;;;;5255176;28;20048;-56
2021/11/11 02:14:30;;;;;;;9.07;6.93;;;22.30;52.20;;;;;;5256346;28;20054;-56
2021/11/11 02:17:02;;;;;;;9.30;6.18;;;22.30;52.20;;;;;;5246340;28;20055;-52
2021/11/11 02:20:16;;;;;;;10.33;5.93;;;22.30;52.20;;;;;;5238152;28;20036;-54
2021/11/11 02:23:17;;;;;;;9.05;6.25;;;22.30;52.20;;;;;;5243016;28;20048;-55
2021/11/11 02:26:08;;;;;;;7.88;6.35;;;22.30;52.20;;;;;;5236497;28;20039;-53
2021/11/11 02:28:51;;;;;;;9.27;5.68;;;22.30;52.20;;;;;;5226312;28;20043;-53
2021/11/11 02:31:26;;;;;;;8.27;6.55;;;22.30;52.20;;;;;;5234226;28;20051;-53
2021/11/11 02:34:02;;;;;;;9.27;6.53;;;22.30;52.20;;;;;;5235814;28;20047;-56
2021/11/11 02:37:01;;;;;;;12.50;6.63;;;22.30;52.20;;;;;;5237378;28;20032;-55
2021/11/11 02:39:58;;;;;;;12.00;6.45;;;22.30;52.30;;;;;;5247937;28;20051;-53
2021/11/11 02:42:41;;;;;;;7.68;5.82;;;22.30;52.30;;;;;;5239288;28;20052;-54
2021/11/11 02:45:22;;;;;;;8.70;6.65;;;22.30;52.30;;;;;;5252743;28;20595;-55
2021/11/11 02:47:58;;;;;;;9.70;6.00;;;22.30;52.30;;;;;;5233910;28;20060;-52
2021/11/11 02:50:36;;;;;;;9.95;6.00;;;22.30;52.20;;;;;;5248757;28;20046;-55
2021/11/11 02:53:08;;;;;;;13.98;6.30;;;22.30;52.20;;;;;;5242813;28;20047;-54
2021/11/11 02:55:44;;;;;;;10.48;6.13;;;22.30;52.40;;;;;;5250401;28;20479;-52
2021/11/11 02:58:18;;;;;;;11.77;5.90;;;22.30;52.20;;;;;;5242690;28;20412;-52
2021/11/11 03:01:00;;;;;;;10.57;5.65;;;22.30;52.30;;;;;;5239718;28;20058;-56
2021/11/11 03:03:34;;;;;;;7.13;5.60;;;22.40;52.30;;;;;;5232756;28;20061;-58
2021/11/11 03:06:10;;;;;;;9.43;6.00;;;22.30;52.20;;;;;;5258346;28;20047;-56
2021/11/11 03:08:46;;;;;;;9.95;5.93;;;22.30;52.20;;;;;;5258969;28;20058;-55
2021/11/11 03:11:19;;;;;;;10.13;6.57;;;22.30;52.10;;;;;;5253094;28;20361;-55
2021/11/11 03:14:03;;;;;;;7.60;5.88;;;22.30;52.10;;;;;;5245415;28;20051;-54
2021/11/11 03:16:36;;;;;;;8.73;5.88;;;22.30;52.10;;;;;;5250624;28;20036;-57
2021/11/11 03:19:09;;;;;;;8.47;5.17;;;22.30;52.10;;;;;;5258071;28;20048;-50
2021/11/11 03:21:44;;;;;;;6.75;5.43;;;22.30;52.10;;;;;;5259308;28;20079;-52
2021/11/11 03:24:18;;;;;;;6.97;5.57;;;22.30;52.00;;;;;;5249968;28;20048;-54
2021/11/11 03:26:51;;;;;;;8.57;5.65;;;22.30;52.10;;;;;;5239848;28;20526;-53
2021/11/11 03:29:24;;;;;;;8.13;5.90;;;22.30;52.10;;;;;;5260063;28;20453;-53
2021/11/11 03:31:57;;;;;;;6.40;5.40;;;22.30;52.10;;;;;;5244426;28;20599;-52
2021/11/11 03:34:30;;;;;;;9.18;6.43;;;22.30;52.10;;;;;;5237425;28;20079;-55
2021/11/11 03:37:07;;;;;;;7.57;6.00;;;22.30;52.00;;;;;;5242575;28;20051;-56
2021/11/11 03:39:41;;;;;;;7.07;5.60;;;22.30;52.10;;;;;;5212490;28;20047;-53
2021/11/11 03:42:16;;;;;;;7.85;5.57;;;22.30;52.00;;;;;;5264221;28;20044;-53
2021/11/11 03:44:50;;;;;;;6.82;5.28;;;22.30;52.00;;;;;;5252084;28;20527;-50
2021/11/11 03:47:23;;;;;;;7.80;5.35;;;22.30;52.00;;;;;;5253813;28;20493;-53
2021/11/11 03:49:57;;;;;;;8.02;5.80;;;22.30;52.00;;;;;;5253845;27;20526;-52
2021/11/11 03:52:30;;;;;;;8.90;6.03;;;22.30;52.00;;;;;;5241683;28;20047;-56
2021/11/11 03:55:04;;;;;;;7.85;5.70;;;22.30;52.00;;;;;;5234419;28;20308;-55
2021/11/11 03:57:37;;;;;;;6.85;5.30;;;22.30;52.10;;;;;;5248715;28;20046;-55
2021/11/11 04:00:15;;;;;;;12.80;5.50;;;22.30;52.00;;;;;;5254708;28;20455;-54
2021/11/11 04:02:52;;;;;;;8.43;5.13;;;22.30;52.10;;;;;;5242390;28;20058;-54
2021/11/11 04:05:25;;;;;;;10.85;5.57;;;22.30;52.10;;;;;;5241812;28;20237;-54
2021/11/11 04:08:01;;;;;;;8.90;5.25;;;22.30;52.10;;;;;;5241891;27;20503;-51
2021/11/11 04:10:34;;;;;;;12.38;5.57;;;22.30;52.10;;;;;;5257715;28;20414;-54
2021/11/11 04:13:16;;;;;;;10.15;5.07;;;22.30;52.10;;;;;;5256463;28;20079;-54
2021/11/11 04:15:49;;;;;;;9.45;5.75;;;22.30;52.10;;;;;;5248494;28;20043;-54
2021/11/11 04:18:22;;;;;;;7.80;5.28;;;22.30;52.10;;;;;;5257404;28;20035;-54
2021/11/11 04:20:56;;;;;;;9.23;5.43;;;22.30;52.20;;;;;;5236936;28;20047;-55
2021/11/11 04:23:28;;;;;;;8.80;5.32;;;22.30;52.10;;;;;;5240222;28;20043;-52
2021/11/11 04:29:41;;;;;;;10.82;5.30;;;22.30;52.10;;;;;;5241270;28;20054;-51
2021/11/11 04:32:14;;;;;;;10.15;5.30;;;22.30;52.10;;;;;;5230722;28;20071;-58
2021/11/11 04:34:46;;;;;;;9.13;5.45;;;22.30;52.40;;;;;;5244921;28;20044;-54
2021/11/11 04:37:27;;;;;;;8.63;5.57;;;22.30;52.10;;;;;;5239608;28;20062;-54
2021/11/11 04:59:46;;;;;;;7.05;5.13;;;22.30;52.00;;;;;;5245357;28;21073;-57
2021/11/11 05:02:52;;;;;;;9.73;5.07;;;22.30;52.00;;;;;;5254290;28;20487;-55
2021/11/11 05:05:25;;;;;;;6.28;5.05;;;22.30;52.10;;;;;;5231129;28;20044;-57
2021/11/11 05:07:58;;;;;;;10.43;5.35;;;22.20;52.10;;;;;;5215260;28;20047;-56
2021/11/11 05:10:31;;;;;;;10.00;4.45;;;22.20;52.10;;;;;;5238568;28;20478;-54
2021/11/11 05:13:06;;;;;;;8.48;5.10;;;22.20;52.20;;;;;;5245126;28;20381;-57
2021/11/11 05:15:39;;;;;;;;;;;22.20;52.20;;;;;;5231346;28;20039;-55
2021/11/11 05:18:12;;;;;;;7.43;4.82;;;22.20;52.30;;;;;;5226332;28;19928;-55
2021/11/11 05:20:44;;;;;;;9.63;4.93;;;22.20;52.30;;;;;;5232260;28;20043;-56
2021/11/11 05:23:17;;;;;;;12.15;4.90;;;22.20;52.40;;;;;;5245077;28;20043;-57
2021/11/11 05:25:50;;;;;;;8.83;4.57;;;22.20;52.40;;;;;;5233193;28;21718;-51
2021/11/11 05:28:24;;;;;;;9.68;4.78;;;22.20;52.40;;;;;;5253297;28;20044;-55
2021/11/11 05:30:58;;;;;;;8.73;4.88;;;22.20;52.40;;;;;;5235698;28;20066;-53
2021/11/11 05:33:31;;;;;;;11.45;5.50;;;22.20;52.40;;;;;;5243806;28;20051;-55
2021/11/11 05:36:04;;;;;;;8.48;5.10;;;22.20;52.50;;;;;;5211625;28;20051;-56
2021/11/11 05:38:37;;;;;;;15.35;5.85;;;22.20;52.40;;;;;;5237458;28;20121;-52
2021/11/11 05:41:11;;;;;;;12.73;5.10;;;22.30;52.50;;;;;;5211849;28;20048;-54
2021/11/11 05:43:46;;;;;;;12.82;5.53;;;22.30;52.50;;;;;;5223307;28;20052;-54
2021/11/11 05:46:20;;;;;;;6.60;4.50;;;22.30;52.40;;;;;;5219196;28;20036;-55
2021/11/11 05:48:54;;;;;;;11.60;5.00;;;22.30;52.40;;;;;;5222567;28;20042;-51
2021/11/11 05:51:26;;;;;;;9.70;4.57;;;22.30;52.30;;;;;;5183301;28;20043;-48
2021/11/11 05:53:59;;;;;;;8.57;4.33;;;22.40;52.40;;;;;;5225067;28;20055;-53
2021/11/11 05:56:33;;;;;;;10.38;4.88;;;22.40;52.30;;;;;;5209216;28;20392;-55
2021/11/11 05:59:05;;;;;;;10.73;4.53;;;22.40;52.30;;;;;;5216970;28;20503;-54
2021/11/11 06:01:38;;;;;;;14.77;4.65;;;22.40;52.40;;;;;;5210392;28;20035;-55
2021/11/11 06:04:10;;;;;;;16.87;5.50;;;22.40;52.50;;;;;;5231606;28;20044;-55
2021/11/11 06:06:50;;;;;;;18.30;5.95;;;22.40;52.50;;;;;;5184841;28;20047;-56
2021/11/11 06:09:22;;;;;;;25.75;6.10;;;22.50;52.70;;;;;;5226246;28;20055;-55
2021/11/11 06:11:55;;;;;;;18.40;5.28;;;22.50;52.80;;;;;;5208108;28;20043;-56
2021/11/11 06:14:27;;;;;;;18.77;5.20;;;22.50;52.80;;;;;;5238190;28;20621;-55
2021/11/11 06:17:00;;;;;;;29.65;5.97;;;22.50;52.70;;;;;;5215493;28;20040;-51
2021/11/11 06:19:37;;;;;;;16.77;5.82;;;22.50;52.60;;;;;;5198571;28;20052;-57
2021/11/11 06:22:11;;;;;;;16.13;5.65;;;22.60;52.50;;;;;;5218630;28;20036;-57
2021/11/11 06:24:44;;;;;;;13.77;5.50;;;22.60;52.50;;;;;;5196509;28;20051;-57
2021/11/11 06:27:18;;;;;;;15.65;5.45;;;22.60;52.40;;;;;;5231272;28;20298;-51
2021/11/11 06:29:52;;;;;;;15.73;5.03;;;22.60;52.30;;;;;;5230737;28;20051;-55
2021/11/11 06:32:24;;;;;;;13.73;5.05;;;22.60;52.30;;;;;;5218603;28;20624;-52
2021/11/11 06:35:20;;;;;;;14.25;6.32;;;22.60;52.20;;;;;;5220912;28;20053;-54
2021/11/11 06:37:52;;;;;;;14.45;5.70;;;22.60;52.20;;;;;;5219406;28;20055;-55
2021/11/11 06:40:26;;;;;;;16.35;7.60;;;22.60;52.20;;;;;;5232557;28;20036;-53
2021/11/11 06:43:00;;;;;;;13.95;6.97;;;22.60;52.20;;;;;;5254528;28;20253;-56
2021/11/11 06:45:43;;;;;;;12.48;5.45;;;22.60;52.10;;;;;;5252830;28;20043;-53
2021/11/11 06:48:16;;;;;;;17.25;6.97;;;22.60;52.00;;;;;;5243488;27;21470;-57
2021/11/11 06:50:49;;;;;;;19.43;6.43;;;22.60;51.90;;;;;;5251346;28;20543;-53
2021/11/11 06:53:22;;;;;;;20.53;7.17;;;22.60;51.80;;;;;;5227154;28;20341;-56
2021/11/11 06:55:55;;;;;;;14.20;6.53;;;22.60;51.70;;;;;;5245631;28;20059;-51
2021/11/11 06:58:28;;;;;;;20.40;6.97;;;22.60;51.60;;;;;;5253098;28;20044;-53
2021/11/11 07:01:05;;;;;;;17.63;6.95;;;22.60;51.60;;;;;;5230742;28;20297;-57
2021/11/11 07:03:37;;;;;;;16.27;6.85;;;22.60;51.50;;;;;;5237076;28;20031;-56
2021/11/11 07:06:10;;;;;;;16.13;6.63;;;22.70;51.50;;;;;;5252309;28;20907;-53
2021/11/11 07:08:43;;;;;;;12.52;5.78;;;22.60;51.40;;;;;;5232512;28;20728;-55
2021/11/11 07:11:15;;;;;;;13.05;6.97;;;22.60;51.40;;;;;;5251654;28;20618;-53
2021/11/11 07:13:48;;;;;;;14.40;6.28;;;22.70;51.40;;;;;;5248260;28;20044;-55
2021/11/11 07:16:21;;;;;;;13.95;6.13;;;22.70;51.40;;;;;;5218821;27;20043;-57
2021/11/11 07:18:53;;;;;;;18.40;6.03;;;22.60;51.30;;;;;;5249593;27;20059;-51
2021/11/11 07:21:26;;;;;;;19.30;6.77;;;22.70;51.30;;;;;;5239817;28;20043;-56
2021/11/11 07:23:58;;;;;;;15.45;6.47;;;22.70;51.30;;;;;;5251731;28;20056;-56
2021/11/11 07:26:31;;;;;;;11.93;5.53;;;22.70;51.30;;;;;;5259994;28;20043;-53
2021/11/11 07:29:03;;;;;;;11.15;5.82;;;22.70;51.30;;;;;;5248704;28;20050;-55
2021/11/11 07:31:36;;;;;;;16.27;6.03;;;22.70;51.40;;;;;;5263650;28;20044;-54
2021/11/11 07:34:08;;;;;;;15.20;6.77;;;22.70;51.30;;;;;;5224956;28;20094;-53
2021/11/11 07:36:41;;;;;;;11.15;5.90;;;22.70;51.30;;;;;;5253829;28;20058;-55
2021/11/11 07:39:15;;;;;;;11.05;5.70;;;22.70;51.30;;;;;;5255238;28;20039;-53
2021/11/11 07:41:48;;;;;;;17.27;6.20;;;22.70;51.30;;;;;;5261954;28;20059;-52
2021/11/11 07:44:24;;;;;;;14.50;6.70;;;22.70;51.30;;;;;;5241690;28;20118;-55
2021/11/11 07:46:57;;;;;;;18.17;6.00;;;22.70;51.30;;;;;;5262620;28;20055;-57
2021/11/11 07:49:30;;;;;;;14.75;6.22;;;22.70;51.30;;;;;;5227524;28;20078;-53
2021/11/11 07:52:03;;;;;;;13.52;5.88;;;22.70;51.20;;;;;;5258446;28;20051;-51
2021/11/11 07:54:35;;;;;;;14.27;5.90;;;22.70;51.20;;;;;;5228230;28;20066;-52
2021/11/11 07:57:08;;;;;;;11.45;5.47;;;22.70;51.20;;;;;;5250711;28;20495;-55
2021/11/11 07:59:41;;;;;;;17.60;7.00;;;22.70;51.20;;;;;;5266581;28;20055;-56
2021/11/11 08:02:14;;;;;;;10.00;5.95;;;22.70;51.20;;;;;;5264902;28;20040;-55
2021/11/11 08:04:49;;;;;;;17.15;6.00;;;22.70;51.20;;;;;;5266424;28;20055;-54
2021/11/11 08:07:21;;;;;;;10.48;5.45;;;22.80;51.20;;;;;;5266078;28;20051;-52
2021/11/11 08:09:54;;;;;;;10.17;5.33;;;22.70;51.10;;;;;;5266039;28;20047;-54
2021/11/11 08:12:26;;;;;;;12.48;5.25;;;22.80;51.20;;;;;;5250672;28;20039;-57
2021/11/11 08:14:59;;;;;;;14.53;6.80;;;22.80;51.20;;;;;;5270875;28;20058;-55
2021/11/11 08:17:31;;;;;;;10.73;5.47;;;22.80;51.20;;;;;;5268993;28;20059;-57
2021/11/11 08:20:06;;;;;;;10.68;5.47;;;22.80;51.10;;;;;;5241959;28;20063;-56
2021/11/11 08:22:39;;;;;;;10.15;6.18;;;22.80;51.10;;;;;;5270069;28;20504;-55
2021/11/11 08:25:13;;;;;;;7.43;4.97;;;22.70;51.70;;;;;;5270879;28;20044;-55
2021/11/11 08:27:46;;;;;;;10.10;5.68;;;22.80;51.10;;;;;;5269739;27;20051;-53
2021/11/11 08:30:19;;;;;;;11.10;5.35;;;22.80;51.10;;;;;;5268229;28;20042;-56
2021/11/11 08:32:53;;;;;;;10.95;5.65;;;22.80;51.00;;;;;;5269528;28;20083;-56
2021/11/11 08:35:26;;;;;;;9.32;5.30;;;22.80;51.10;;;;;;5269880;28;20047;-54
2021/11/11 08:37:59;;;;;;;10.60;5.75;;;22.80;51.00;;;;;;5267872;28;20530;-56
2021/11/11 08:40:32;;;;;;;10.32;5.97;;;22.80;51.00;;;;;;5267906;28;20044;-56
2021/11/11 08:43:04;;;;;;;7.53;5.15;;;22.80;51.00;;;;;;5253730;28;20047;-57
2021/11/11 08:45:41;;;;;;;12.30;5.70;;;22.80;51.00;;;;;;5256568;28;20047;-57
2021/11/11 08:48:14;;;;;;;11.07;4.97;;;22.80;51.00;;;;;;5250549;28;20408;-54
2021/11/11 08:50:46;;;;;;;10.02;5.38;;;22.80;51.00;;;;;;5260855;28;20048;-57
2021/11/11 08:53:19;;;;;;;7.00;4.70;;;22.80;51.00;;;;;;5264902;28;20054;-53
2021/11/11 08:55:51;;;;;;;8.65;5.20;;;22.80;51.00;;;;;;5264334;28;20054;-53
2021/11/11 08:58:24;;;;;;;8.55;4.97;;;22.80;51.00;;;;;;5265586;28;20048;-53
2021/11/11 09:01:00;;;;;;;9.85;4.82;;;22.80;51.00;;;;;;5262381;28;20418;-51
2021/11/11 09:03:34;;;;;;;8.93;5.70;;;22.80;50.90;;;;;;5269090;28;20047;-54
2021/11/11 09:06:07;;;;;;;8.63;4.88;;;22.80;50.90;;;;;;5271195;28;20035;-57
2021/11/11 09:08:39;;;;;;;9.60;5.05;;;22.80;50.90;;;;;;5270420;28;20043;-53
2021/11/11 09:11:12;;;;;;;8.73;5.07;;;22.80;50.80;;;;;;5272822;28;20111;-51
2021/11/11 09:13:46;;;;;;;9.23;5.20;;;22.80;50.80;;;;;;5266704;28;20422;-53
2021/11/11 09:16:18;;;;;;;6.95;5.03;;;22.80;50.60;;;;;;5269497;28;20047;-53
2021/11/11 09:18:53;;;;;;;9.55;4.80;;;22.80;51.20;;;;;;5250591;28;20040;-56
2021/11/11 09:21:26;;;;;;;10.98;5.28;;;22.90;50.70;;;;;;5269406;28;20047;-56
2021/11/11 09:23:58;;;;;;;10.40;5.38;;;22.80;50.60;;;;;;5265102;28;20036;-53
2021/11/11 09:26:31;;;;;;;9.23;4.90;;;22.90;50.60;;;;;;5266884;28;20044;-54
2021/11/11 09:29:04;;;;;;;8.18;4.90;;;22.90;50.60;;;;;;5263764;28;20087;-58
2021/11/11 09:31:39;;;;;;;12.40;4.47;;;22.90;50.60;;;;;;5260041;28;20495;-52
2021/11/11 09:34:11;;;;;;;7.82;5.18;;;22.80;50.50;;;;;;5259387;27;20543;-55
2021/11/11 09:36:44;;;;;;;6.82;4.90;;;22.90;50.50;;;;;;5265160;28;20056;-56
2021/11/11 09:39:16;;;;;;;17.20;5.28;;;22.80;50.50;;;;;;5257675;28;20043;-58
2021/11/11 09:41:51;;;;;;;7.37;5.23;;;22.80;50.40;;;;;;5263042;28;20040;-54
2021/11/11 09:44:27;;;;;;;7.10;4.45;;;22.90;50.50;;;;;;5261838;28;20392;-54
2021/11/11 09:47:00;;;;;;;7.70;4.90;;;22.80;50.40;;;;;;5264175;28;20055;-57
2021/11/11 09:49:33;;;;;;;6.50;4.47;;;22.90;50.50;;;;;;5263773;28;20043;-57
2021/11/11 09:52:06;;;;;;;7.63;5.00;;;22.90;50.50;;;;;;5241783;28;20040;-50
2021/11/11 10:00:24;;;;;;;7.20;4.90;;;22.90;50.40;;;;;;5258712;28;20054;-55
2021/11/11 10:02:57;;;;;;;8.48;4.70;;;22.90;50.40;;;;;;5260927;28;20043;-55
2021/11/11 10:05:29;;;;;;;7.72;4.65;;;22.90;50.40;;;;;;5264987;28;20671;-51
2021/11/11 10:08:07;;;;;;;11.27;5.15;;;22.90;50.40;;;;;;5252697;28;20046;-54
2021/11/11 10:10:40;;;;;;;11.13;5.30;;;22.90;50.50;;;;;;5245901;28;20054;-56
2021/11/11 10:13:20;;;;;;;9.50;4.60;;;22.90;50.50;;;;;;5261181;28;20055;-54
2021/11/11 10:16:07;;;;;;;11.90;5.10;;;22.90;50.40;;;;;;5264901;28;20051;-54
2021/11/11 10:18:40;;;;;;;10.35;5.22;;;22.90;50.40;;;;;;5263318;28;20150;-52
2021/11/11 10:21:20;;;;;;;7.32;4.47;;;22.90;50.50;;;;;;5264476;28;20044;-50
2021/11/11 10:23:54;;;;;;;12.05;4.68;;;22.90;51.10;;;;;;5249264;28;20043;-51
2021/11/11 10:26:42;;;;;;;10.52;4.30;;;22.90;50.50;;;;;;5264430;28;20490;-52
2021/11/11 10:29:25;;;;;;;8.70;4.50;;;23.00;50.50;;;;;;5249576;28;20435;-54
2021/11/11 10:32:04;;;;;;;7.68;4.47;;;22.90;50.40;;;;;;5266930;28;20052;-52
2021/11/11 10:34:47;;;;;;;11.35;4.90;;;23.00;50.50;;;;;;5261986;28;20673;-53
2021/11/11 10:37:21;;;;;;;7.18;4.32;;;23.00;50.40;;;;;;5267049;28;20535;-54
2021/11/11 10:40:01;;;;;;;10.02;4.88;;;23.00;50.40;;;;;;5265129;28;20050;-52
2021/11/11 10:42:36;;;;;;;9.02;4.57;;;23.10;50.40;;;;;;5249970;28;20051;-52
2021/11/11 10:45:12;;;;;;;10.38;5.05;;;23.10;50.50;;;;;;5268314;28;20035;-55
2021/11/11 10:47:48;;;;;;;13.00;4.50;;;23.20;50.50;;;;;;5267651;28;20048;-53
2021/11/11 10:50:42;;;;;;;8.07;5.25;;;23.20;50.50;;;;;;5260213;28;20040;-54
2021/11/11 10:53:21;;;;;;;9.05;4.68;;;23.20;50.60;;;;;;5255494;28;20067;-53
2021/11/11 10:55:57;;;;;;;11.80;4.68;;;23.20;50.50;;;;;;5269784;28;20052;-55
2021/11/11 10:58:39;;;;;;;9.45;4.13;;;23.30;50.50;;;;;;5264985;28;20047;-56
2021/11/11 11:01:19;;;;;;;7.50;4.35;;;23.40;50.40;;;;;;5257538;28;20036;-50
2021/11/11 11:03:57;;;;;;;8.40;4.38;;;23.40;50.40;;;;;;5261160;28;20053;-51
2021/11/11 11:06:31;;;;;;;5.68;4.22;;;23.50;50.30;;;;;;5265005;28;20047;-53
2021/11/11 11:09:04;;;;;;;6.78;4.63;;;23.60;50.30;;;;;;5259567;28;20487;-54
2021/11/11 11:11:39;;;;;;;9.00;4.68;;;23.70;50.30;;;;;;5254829;28;20054;-52
2021/11/11 11:14:16;;;;;;;8.35;4.45;;;23.80;50.20;;;;;;5257652;28;20041;-52
2021/11/11 11:16:49;;;;;;;7.28;4.22;;;23.80;50.00;;;;;;5260466;28;20050;-55
2021/11/11 11:19:22;;;;;;;6.83;4.43;;;23.90;49.90;;;;;;5259590;28;20051;-55
2021/11/11 11:21:55;;;;;;;9.07;4.45;;;24.00;49.80;;;;;;5271126;28;20058;-52
2021/11/11 11:24:32;;;;;;;13.57;4.80;;;24.10;49.70;;;;;;5268972;28;20043;-54
2021/11/11 11:27:06;;;;;;;7.90;4.53;;;24.20;49.60;;;;;;5272246;28;20404;-54
2021/11/11 11:29:59;;;;;;;10.70;4.78;;;24.30;49.50;;;;;;5271102;28;20530;-55
2021/11/11 11:32:32;;;;;;;11.10;4.60;;;24.40;49.40;;;;;;5267032;28;20733;-50
2021/11/11 11:35:05;;;;;;;6.18;4.30;;;24.50;49.30;;;;;;5261611;28;20294;-55
2021/11/11 11:37:38;;;;;;;10.93;4.78;;;24.60;49.10;;;;;;5263932;28;20050;-52
2021/11/11 11:40:15;;;;;;;9.55;4.65;;;24.60;49.00;;;;;;5264571;27;20040;-54
2021/11/11 11:42:51;;;;;;;8.75;4.60;;;24.70;48.90;;;;;;5264876;28;20407;-51
2021/11/11 11:45:24;;;;;;;7.38;4.75;;;24.70;48.80;;;;;;5265520;28;20719;-49
2021/11/11 11:48:00;;;;;;;8.20;4.32;;;24.80;48.80;;;;;;5268696;28;20048;-51
2021/11/11 11:50:48;;;;;;;6.53;4.00;;;24.80;48.70;;;;;;5263758;28;20043;-50
2021/11/11 11:53:25;;;;;;;11.25;5.30;;;24.80;48.70;;;;;;5221026;28;20051;-55
2021/11/11 11:56:06;;;;;;;7.88;4.43;;;24.80;48.70;;;;;;5248290;28;21375;-56
2021/11/11 12:01:37;;;;;;;6.68;4.32;;;24.70;48.60;;;;;;5249971;28;20047;-51
2021/11/11 12:05:06;;;;;;;10.43;4.40;;;24.80;48.70;;;;;;5246710;28;20043;-54
2021/11/11 12:08:12;;;;;;;12.20;5.00;;;24.70;48.60;;;;;;5242126;28;20420;-53
2021/11/11 12:41:16;;;;;;;9.07;4.97;;;25.90;46.80;;;;;;5259469;28;20511;-52
2021/11/11 12:44:12;;;;;;;8.98;4.90;;;26.30;46.40;;;;;;5235289;28;20496;-51
2021/11/11 12:46:46;;;;;;;9.27;4.75;;;26.00;46.50;;;;;;5243862;28;20062;-55
2021/11/11 12:49:26;;;;;;;11.82;5.50;;;25.80;47.00;;;;;;5253230;28;20044;-54
2021/11/11 12:52:25;;;;;;;9.43;4.70;;;25.80;47.00;;;;;;5253055;28;20055;-55
2021/11/11 12:55:17;;;;;;;7.75;4.38;;;25.50;47.30;;;;;;5255876;28;20075;-51
2021/11/11 12:58:01;;;;;;;7.75;5.15;;;25.30;47.80;;;;;;5258599;28;20054;-53
2021/11/11 13:00:41;;;;;;;8.73;4.82;;;25.10;47.90;;;;;;5249754;28;20534;-54
2021/11/11 13:03:15;;;;;;;8.55;4.45;;;25.30;47.90;;;;;;5261283;28;20530;-54
2021/11/11 13:05:54;;;;;;;10.88;5.28;;;25.10;47.90;;;;;;5261764;28;20055;-54
2021/11/11 13:08:48;;;;;;;9.20;4.82;;;25.10;48.00;;;;;;5263044;28;20047;-53
2021/11/11 13:11:29;;;;;;;8.40;5.05;;;24.90;48.20;;;;;;5258529;28;20046;-52
2021/11/11 13:14:09;;;;;;;8.95;5.70;;;25.00;48.20;;;;;;5257975;28;20050;-56
2021/11/11 13:17:09;;;;;;;7.95;4.68;;;25.80;47.10;;;;;;5270747;28;20584;-51
2021/11/11 13:19:47;;;;;;;11.23;4.75;;;25.90;46.50;;;;;;5234542;28;20055;-54
2021/11/11 13:22:43;;;;;;;10.25;5.15;;;26.30;45.90;;;;;;5241277;28;20047;-57
2021/11/11 13:26:23;;;;;;;9.23;5.03;;;26.70;45.20;;;;;;5239547;28;20676;-56
2021/11/11 14:00:53;;;;;;;9.45;4.32;;;26.50;47.20;;;;;;5238020;28;20058;-52
2021/11/11 15:19:24;;;;;;;9.20;4.47;;;24.50;50.00;;;;;;5268136;28;20047;-54
2021/11/11 15:46:38;;;;;;;8.40;4.80;;;24.00;50.60;;;;;;5205384;28;20055;-55
2021/11/11 16:23:17;;;;;;;8.43;4.50;;;23.70;51.10;;;;;;5225864;28;20063;-56
2021/11/11 16:26:04;;;;;;;7.93;4.15;;;23.60;51.20;;;;;;5240347;28;20052;-52
2021/11/11 16:28:38;;;;;;;9.15;4.38;;;23.60;51.30;;;;;;5240885;28;20050;-54
2021/11/11 16:31:11;;;;;;;9.38;4.32;;;23.60;51.30;;;;;;5225636;28;20039;-57
2021/11/11 16:33:45;;;;;;;13.45;5.00;;;23.60;51.40;;;;;;5219390;28;20052;-55
2021/11/11 16:36:19;;;;;;;8.45;4.68;;;23.60;51.50;;;;;;5228707;28;21023;-53
2021/11/11 16:38:51;;;;;;;7.03;4.30;;;23.60;51.50;;;;;;5218072;28;20048;-52
2021/11/11 16:41:25;;;;;;;11.32;4.07;;;23.50;51.50;;;;;;5231453;28;20515;-54
2021/11/11 16:43:57;;;;;;;11.50;4.72;;;23.50;51.40;;;;;;5238287;28;20086;-56
2021/11/11 16:46:32;;;;;;;6.38;4.00;;;23.50;51.40;;;;;;5229632;28;20913;-53
2021/11/11 16:49:07;;;;;;;9.50;3.85;;;23.50;51.50;;;;;;5245170;28;20047;-55
2021/11/11 16:51:40;;;;;;;7.97;4.60;;;23.50;51.40;;;;;;5218563;28;20044;-56
2021/11/11 16:54:13;;;;;;;6.93;3.97;;;23.50;51.50;;;;;;5213734;28;20055;-54
2021/11/11 16:56:45;;;;;;;9.85;5.00;;;23.50;51.50;;;;;;5235255;28;20056;-51
2021/11/11 16:59:23;;;;;;;8.35;4.53;;;23.50;51.50;;;;;;5233580;28;20629;-56
2021/11/11 17:01:55;;;;;;;10.45;4.55;;;23.50;51.40;;;;;;5221962;28;20047;-54
2021/11/11 17:04:28;;;;;;;7.30;4.90;;;23.50;51.50;;;;;;5238235;28;20864;-54
2021/11/11 17:07:01;;;;;;;12.33;4.50;;;23.50;51.50;;;;;;5246376;28;20242;-54
2021/11/11 17:09:34;;;;;;;9.35;4.72;;;23.50;52.10;;;;;;5233147;28;20040;-57
2021/11/11 17:12:07;;;;;;;8.82;4.32;;;23.50;51.50;;;;;;5205035;28;20328;-53
2021/11/11 17:14:41;;;;;;;9.40;4.82;;;23.40;51.40;;;;;;5232317;28;20050;-55
2021/11/11 17:17:15;;;;;;;13.02;4.78;;;23.50;51.60;;;;;;5202145;28;20337;-56